createdAt,value
2023-01-25T00:01:41.813Z,103186.97
2023-01-25T00:04:08.262Z,103184.59
2023-01-25T00:06:34.918Z,103174.44
2023-01-25T00:09:01.303Z,103174.84
2023-01-25T00:11:27.622Z,103176.66
2023-01-25T00:13:54.773Z,103174.69
2023-01-25T00:16:21.289Z,103175.00
2023-01-25T00:18:48.766Z,103180.09
2023-01-25T00:21:18.697Z,103175.31
2023-01-25T00:23:45.272Z,103167.50
2023-01-25T00:26:11.824Z,103164.41
2023-01-25T00:28:38.247Z,103167.09
2023-01-25T00:31:07.010Z,103161.97
2023-01-25T00:33:44.199Z,103159.28
2023-01-25T00:36:32.356Z,103161.09
2023-01-25T00:38:59.127Z,103157.72
2023-01-25T00:41:25.645Z,103150.28
2023-01-25T00:43:52.111Z,103150.69
2023-01-25T00:46:19.174Z,103148.81
2023-01-25T00:48:45.763Z,103145.00
2023-01-25T00:51:12.116Z,103139.63
2023-01-25T00:53:38.585Z,103135.06
2023-01-25T00:56:05.142Z,103130.88
2023-01-25T00:58:31.474Z,103129.44
2023-01-25T01:00:58.230Z,103130.31
2023-01-25T01:03:24.754Z,103136.50
2023-01-25T01:06:09.691Z,103129.88
2023-01-25T01:08:41.398Z,103125.66
2023-01-25T01:11:10.929Z,103131.47
2023-01-25T01:13:37.917Z,103120.44
2023-01-25T01:16:06.306Z,103127.75
2023-01-25T01:18:37.989Z,103127.38
2023-01-25T01:21:05.112Z,103131.41
2023-01-25T01:23:32.550Z,103117.56
2023-01-25T01:26:04.067Z,103126.06
2023-01-25T01:28:31.813Z,103131.41
2023-01-25T01:31:07.106Z,103126.63
2023-01-25T01:33:35.334Z,103132.56
2023-01-25T01:36:15.790Z,103133.84
2023-01-25T01:38:42.587Z,103124.09
2023-01-25T01:41:10.260Z,103128.59
2023-01-25T01:43:37.072Z,103132.13
2023-01-25T01:46:15.375Z,103133.66
2023-01-25T01:48:53.918Z,103132.09
2023-01-25T01:51:50.441Z,103127.59
2023-01-25T01:54:33.811Z,103127.47
2023-01-25T01:57:11.945Z,103125.09
2023-01-25T01:59:48.945Z,103124.97
2023-01-25T02:02:16.081Z,103127.75
2023-01-25T02:04:46.299Z,103127.19
2023-01-25T02:07:41.878Z,103126.75
2023-01-25T02:10:12.273Z,103125.22
2023-01-25T02:12:39.405Z,103122.38
2023-01-25T02:15:07.042Z,103120.09
2023-01-25T02:17:38.809Z,103118.41
2023-01-25T02:20:28.982Z,103119.97
2023-01-25T02:23:18.360Z,103131.94
2023-01-25T02:25:44.953Z,103121.50
2023-01-25T02:28:20.443Z,103110.06
2023-01-25T02:30:47.194Z,103115.88
2023-01-25T02:33:13.674Z,103111.22
2023-01-25T02:35:50.121Z,103107.16
2023-01-25T02:38:18.397Z,103111.63
2023-01-25T02:40:49.471Z,103109.25
2023-01-25T02:43:18.380Z,103101.06
2023-01-25T02:45:52.352Z,103108.06
2023-01-25T02:48:18.859Z,103098.88
2023-01-25T02:50:45.264Z,103096.63
2023-01-25T02:53:12.014Z,103098.69
2023-01-25T02:55:38.520Z,103095.75
2023-01-25T02:58:04.855Z,103093.50
2023-01-25T03:00:31.186Z,103105.28
2023-01-25T03:02:57.532Z,103097.91
2023-01-25T03:05:23.962Z,103104.97
2023-01-25T03:07:50.343Z,103099.59
2023-01-25T03:10:16.810Z,103096.38
2023-01-25T03:12:43.223Z,103094.28
2023-01-25T03:15:10.052Z,103095.22
2023-01-25T03:17:36.587Z,103094.25
2023-01-25T03:20:03.043Z,103093.97
2023-01-25T03:22:29.462Z,103097.63
2023-01-25T03:24:57.236Z,103095.13
2023-01-25T03:27:23.599Z,103095.66
2023-01-25T03:29:49.998Z,103095.31
2023-01-25T03:32:16.568Z,103104.22
2023-01-25T03:34:42.973Z,103107.16
2023-01-25T03:37:09.379Z,103090.41
2023-01-25T03:39:35.742Z,103100.72
2023-01-25T03:42:02.168Z,103102.63
2023-01-25T03:44:28.614Z,103100.19
2023-01-25T03:46:54.978Z,103087.16
2023-01-25T03:49:21.379Z,103088.59
2023-01-25T03:51:47.930Z,103090.84
2023-01-25T03:54:14.357Z,103091.03
2023-01-25T03:56:41.018Z,103092.88
2023-01-25T03:59:07.444Z,103091.88
2023-01-25T04:01:33.793Z,103095.66
2023-01-25T04:04:00.231Z,103084.81
2023-01-25T04:06:26.629Z,103078.16
2023-01-25T04:08:53.117Z,103073.25
2023-01-25T04:11:19.543Z,103067.16
2023-01-25T04:13:46.006Z,103061.53
2023-01-25T04:16:12.571Z,103063.25
2023-01-25T04:18:40.634Z,103060.97
2023-01-25T04:21:07.011Z,103050.25
2023-01-25T04:23:33.514Z,103044.03
2023-01-25T04:26:05.950Z,103040.88
2023-01-25T04:28:33.741Z,103034.38
2023-01-25T04:31:00.490Z,103038.03
2023-01-25T04:33:27.461Z,103035.34
2023-01-25T04:35:53.810Z,103033.13
2023-01-25T04:38:20.315Z,103032.59
2023-01-25T04:40:47.156Z,103038.41
2023-01-25T04:43:15.460Z,103032.84
2023-01-25T04:45:42.289Z,103022.22
2023-01-25T04:48:10.342Z,103021.66
2023-01-25T04:50:37.648Z,103022.78
2023-01-25T04:53:04.801Z,103024.19
2023-01-25T04:55:33.587Z,103020.09
2023-01-25T04:58:00.799Z,103020.66
2023-01-25T05:00:28.061Z,103018.13
2023-01-25T05:02:54.616Z,103020.25
2023-01-25T05:05:21.053Z,103020.84
2023-01-25T05:07:47.380Z,103020.72
2023-01-25T05:10:13.949Z,103019.44
2023-01-25T05:12:40.416Z,103022.81
2023-01-25T05:15:07.832Z,103013.53
2023-01-25T05:17:34.507Z,103014.53
2023-01-25T05:20:00.973Z,103014.41
2023-01-25T05:22:27.375Z,103008.16
2023-01-25T05:24:54.100Z,103010.16
2023-01-25T05:27:21.122Z,102999.69
2023-01-25T05:29:47.861Z,102998.56
2023-01-25T05:32:20.175Z,103002.38
2023-01-25T05:34:47.322Z,103003.22
2023-01-25T05:37:16.567Z,102995.88
2023-01-25T05:39:42.946Z,102994.88
2023-01-25T05:42:18.198Z,102998.84
2023-01-25T05:44:47.299Z,102995.50
2023-01-25T05:47:16.279Z,102995.50
2023-01-25T05:49:42.715Z,103007.34
2023-01-25T05:52:18.286Z,102999.19
2023-01-25T05:54:44.897Z,102995.19
2023-01-25T05:57:11.289Z,102993.53
2023-01-25T05:59:37.623Z,102992.25
2023-01-25T06:02:03.977Z,102994.50
2023-01-25T06:04:30.390Z,102992.53
2023-01-25T06:06:57.024Z,102996.63
2023-01-25T06:09:23.518Z,102995.03
2023-01-25T06:11:56.151Z,102988.97
2023-01-25T06:14:23.714Z,102988.25
2023-01-25T06:16:50.030Z,102995.13
2023-01-25T06:19:16.522Z,102995.97
2023-01-25T06:21:42.849Z,102990.22
2023-01-25T06:24:09.316Z,102986.28
2023-01-25T06:26:35.831Z,102981.91
2023-01-25T06:29:05.684Z,102986.00
2023-01-25T06:31:32.113Z,102976.44
2023-01-25T06:34:01.118Z,102979.81
2023-01-25T06:36:27.623Z,102978.84
2023-01-25T06:38:54.036Z,102966.16
2023-01-25T06:41:20.612Z,102973.03
2023-01-25T06:43:47.957Z,102984.94
2023-01-25T06:46:14.750Z,102974.88
2023-01-25T06:48:42.955Z,102979.59
2023-01-25T06:51:11.997Z,102974.66
2023-01-25T06:53:42.246Z,102979.91
2023-01-25T06:56:18.145Z,102979.06
2023-01-25T06:58:45.268Z,102988.38
2023-01-25T07:01:22.331Z,102986.13
2023-01-25T07:03:56.216Z,102983.53
2023-01-25T07:06:23.945Z,102992.75
2023-01-25T07:08:50.873Z,102985.72
2023-01-25T07:11:19.092Z,102989.59
2023-01-25T07:13:47.341Z,102984.34
2023-01-25T07:16:19.801Z,102991.78
2023-01-25T07:18:46.807Z,102980.94
2023-01-25T07:21:21.713Z,102988.94
2023-01-25T07:23:49.318Z,102988.94
2023-01-25T07:26:23.902Z,102988.28
2023-01-25T07:28:51.567Z,102982.50
2023-01-25T07:31:19.922Z,102983.75
2023-01-25T07:33:50.718Z,102983.88
2023-01-25T07:36:17.678Z,102988.22
2023-01-25T07:38:46.993Z,102980.41
2023-01-25T07:41:13.477Z,102981.25
2023-01-25T07:43:40.021Z,102973.94
2023-01-25T07:46:11.297Z,102978.00
2023-01-25T07:48:38.452Z,102978.00
2023-01-25T07:51:23.513Z,102977.75
2023-01-25T07:53:52.465Z,102975.19
2023-01-25T07:56:20.093Z,102982.63
2023-01-25T07:58:47.218Z,102985.66
2023-01-25T08:01:17.124Z,102973.09
2023-01-25T08:03:44.267Z,102975.81
2023-01-25T08:06:11.164Z,102968.63
2023-01-25T08:08:48.450Z,102971.22
2023-01-25T08:11:20.502Z,102965.19
2023-01-25T08:13:49.019Z,102973.63
2023-01-25T08:16:26.901Z,102966.50
2023-01-25T08:18:55.836Z,102972.91
2023-01-25T08:21:25.283Z,102975.84
2023-01-25T08:23:51.841Z,102981.94
2023-01-25T08:26:18.585Z,102983.94
2023-01-25T08:28:45.173Z,102980.56
2023-01-25T08:31:20.299Z,102984.66
2023-01-25T08:33:47.396Z,102976.31
2023-01-25T08:36:15.077Z,102966.34
2023-01-25T08:38:42.714Z,102973.34
2023-01-25T08:41:10.604Z,102972.88
2023-01-25T08:43:37.360Z,102963.72
2023-01-25T08:46:04.523Z,102958.03
2023-01-25T08:48:31.656Z,102966.25
2023-01-25T08:50:58.296Z,102960.38
2023-01-25T08:53:24.739Z,102964.44
2023-01-25T08:55:51.143Z,102950.78
2023-01-25T08:58:19.732Z,102955.25
2023-01-25T09:00:46.436Z,102955.84
2023-01-25T09:03:13.616Z,102959.13
2023-01-25T09:05:40.418Z,102950.44
2023-01-25T09:08:09.824Z,102954.31
2023-01-25T09:10:36.560Z,102955.97
2023-01-25T09:13:03.267Z,102955.44
2023-01-25T09:15:29.690Z,102959.59
2023-01-25T09:17:57.192Z,102952.88
2023-01-25T09:20:24.224Z,102949.34
2023-01-25T09:22:50.861Z,102940.81
2023-01-25T09:25:17.377Z,102944.44
2023-01-25T09:27:43.891Z,102937.66
2023-01-25T09:30:18.197Z,102933.19
2023-01-25T09:32:45.354Z,102939.41
2023-01-25T09:35:11.784Z,102933.50
2023-01-25T09:37:38.893Z,102931.88
2023-01-25T09:40:07.678Z,102923.94
2023-01-25T09:43:17.950Z,102927.28
2023-01-25T09:45:44.716Z,102928.69
2023-01-25T09:48:41.646Z,102919.44
2023-01-25T09:51:15.749Z,102925.50
2023-01-25T09:53:51.220Z,102921.75
2023-01-25T09:56:22.193Z,102911.84
2023-01-25T09:58:52.404Z,102908.75
2023-01-25T10:01:51.229Z,102910.22
2023-01-25T10:04:33.920Z,102911.41
2023-01-25T10:07:12.900Z,102905.59
2023-01-25T10:09:51.623Z,102908.16
2023-01-25T10:12:24.360Z,102899.13
2023-01-25T10:14:51.480Z,102893.53
2023-01-25T10:17:40.376Z,102896.34
2023-01-25T10:20:20.782Z,102897.50
2023-01-25T10:22:54.162Z,102888.34
2023-01-25T10:25:46.228Z,102889.03
2023-01-25T10:28:41.100Z,102887.19
2023-01-25T10:31:17.768Z,102881.25
2023-01-25T10:33:46.315Z,102877.47
2023-01-25T10:36:20.338Z,102880.00
2023-01-25T10:38:49.458Z,102869.56
2023-01-25T10:41:26.855Z,102859.28
2023-01-25T10:44:13.201Z,102863.66
2023-01-25T10:46:41.297Z,102861.38
2023-01-25T10:49:46.589Z,102853.88
2023-01-25T10:52:30.550Z,102852.47
2023-01-25T10:55:11.942Z,102855.59
2023-01-25T10:57:43.420Z,102849.53
2023-01-25T11:00:30.143Z,102843.22
2023-01-25T11:02:56.714Z,102837.13
2023-01-25T11:05:32.273Z,102832.88
2023-01-25T11:08:15.600Z,102831.22
2023-01-25T11:10:44.719Z,102828.09
2023-01-25T11:13:19.474Z,102823.28
2023-01-25T11:16:04.823Z,102821.84
2023-01-25T11:18:34.825Z,102821.84
2023-01-25T11:21:14.891Z,102824.72
2023-01-25T11:23:41.247Z,102818.78
2023-01-25T11:26:14.699Z,102825.44
2023-01-25T11:28:41.869Z,102818.09
2023-01-25T11:31:13.947Z,102810.31
2023-01-25T11:33:41.881Z,102813.72
2023-01-25T11:36:27.283Z,102809.34
2023-01-25T11:39:18.718Z,102797.34
2023-01-25T11:42:08.643Z,102784.66
2023-01-25T11:45:02.647Z,102779.28
2023-01-25T11:47:47.568Z,102775.63
2023-01-25T11:50:23.178Z,102765.47
2023-01-25T11:53:17.221Z,102763.19
2023-01-25T11:55:54.257Z,102755.72
2023-01-25T11:58:46.143Z,102751.53
2023-01-25T12:01:27.768Z,102736.97
2023-01-25T12:04:40.824Z,102734.16
2023-01-25T12:07:34.128Z,102729.19
2023-01-25T12:10:22.354Z,102724.53
2023-01-25T12:13:02.974Z,102719.47
2023-01-25T12:15:42.632Z,102712.13
2023-01-25T12:18:22.918Z,102712.84
2023-01-25T12:20:52.034Z,102703.53
2023-01-25T12:23:39.958Z,102705.50
2023-01-25T12:26:42.003Z,102694.94
2023-01-25T12:29:26.345Z,102685.91
2023-01-25T12:32:07.067Z,102680.56
2023-01-25T12:34:37.685Z,102669.66
2023-01-25T12:37:15.477Z,102658.53
2023-01-25T12:39:53.878Z,102649.94
2023-01-25T12:42:29.317Z,102649.81
2023-01-25T12:45:17.114Z,102641.47
2023-01-25T12:47:53.819Z,102635.41
2023-01-25T12:50:41.454Z,102632.91
2023-01-25T12:53:16.662Z,102627.00
2023-01-25T12:55:43.748Z,102622.31
2023-01-25T12:58:26.523Z,102623.84
2023-01-25T13:01:17.211Z,102611.44
2023-01-25T13:04:02.294Z,102607.06
2023-01-25T13:06:52.765Z,102599.84
2023-01-25T13:09:31.057Z,102598.03
2023-01-25T13:11:57.526Z,102591.41
2023-01-25T13:14:40.910Z,102581.78
2023-01-25T13:17:39.913Z,102572.91
2023-01-25T13:20:40.259Z,102571.03
2023-01-25T13:23:34.035Z,102553.78
2023-01-25T13:26:22.339Z,102546.00
2023-01-25T13:28:50.446Z,102555.03
2023-01-25T13:31:51.061Z,102549.50
2023-01-25T13:34:40.115Z,102540.88
2023-01-25T13:37:29.028Z,102536.41
2023-01-25T13:40:07.830Z,102539.78
2023-01-25T13:42:37.802Z,102534.41
2023-01-25T13:45:11.749Z,102525.97
2023-01-25T13:47:38.557Z,102517.50
2023-01-25T13:50:25.640Z,102525.44
2023-01-25T13:53:03.180Z,102524.31
2023-01-25T13:55:39.118Z,102527.97
2023-01-25T13:58:29.908Z,102522.16
2023-01-25T14:01:08.476Z,102516.44
2023-01-25T14:03:47.565Z,102517.84
2023-01-25T14:06:20.430Z,102521.75
2023-01-25T14:08:48.476Z,102516.97
2023-01-25T14:11:20.076Z,102514.44
2023-01-25T14:14:00.061Z,102506.53
2023-01-25T14:16:29.821Z,102497.84
2023-01-25T14:19:17.918Z,102497.81
2023-01-25T14:21:44.527Z,102504.69
2023-01-25T14:24:11.746Z,102508.78
2023-01-25T14:26:39.307Z,102503.28
2023-01-25T14:29:31.961Z,102495.19
2023-01-25T14:31:59.544Z,102487.88
2023-01-25T14:34:26.542Z,102481.44
2023-01-25T14:37:14.258Z,102487.50
2023-01-25T14:39:40.713Z,102480.84
2023-01-25T14:42:07.586Z,102482.81
2023-01-25T14:44:34.159Z,102474.16
2023-01-25T14:47:21.905Z,102479.13
2023-01-25T14:49:48.495Z,102478.56
2023-01-25T14:52:19.429Z,102470.94
2023-01-25T14:54:59.837Z,102471.16
2023-01-25T14:57:30.883Z,102481.34
2023-01-25T14:59:58.106Z,102470.63
2023-01-25T15:02:44.421Z,102477.78
2023-01-25T15:05:21.654Z,102470.94
2023-01-25T15:08:18.945Z,102475.31
2023-01-25T15:10:56.771Z,102476.06
2023-01-25T15:13:26.199Z,102469.53
2023-01-25T15:15:57.814Z,102466.72
2023-01-25T15:18:52.544Z,102459.66
2023-01-25T15:21:24.220Z,102454.03
2023-01-25T15:23:55.421Z,102455.41
2023-01-25T15:26:29.918Z,102444.38
2023-01-25T15:28:58.766Z,102450.03
2023-01-25T15:31:27.354Z,102441.00
2023-01-25T15:33:55.359Z,102433.66
2023-01-25T15:36:22.016Z,102437.75
2023-01-25T15:38:48.456Z,102423.97
2023-01-25T15:41:16.403Z,102424.38
2023-01-25T15:43:43.207Z,102417.63
2023-01-25T15:46:25.383Z,102410.97
2023-01-25T15:48:52.508Z,102407.78
2023-01-25T15:51:19.427Z,102408.75
2023-01-25T15:53:46.847Z,102409.06
2023-01-25T15:56:16.711Z,102406.06
2023-01-25T15:58:47.297Z,102409.16
2023-01-25T16:01:13.816Z,102402.63
2023-01-25T16:03:43.336Z,102399.97
2023-01-25T16:06:28.716Z,102406.00
2023-01-25T16:08:55.350Z,102401.28
2023-01-25T16:11:21.679Z,102405.88
2023-01-25T16:13:48.125Z,102401.19
2023-01-25T16:16:20.826Z,102395.41
2023-01-25T16:18:47.719Z,102390.31
2023-01-25T16:21:14.638Z,102393.25
2023-01-25T16:23:42.533Z,102387.31
2023-01-25T16:26:23.563Z,102394.94
2023-01-25T16:28:49.992Z,102397.03
2023-01-25T16:31:31.198Z,102394.78
2023-01-25T16:33:58.271Z,102398.13
2023-01-25T16:36:25.154Z,102391.84
2023-01-25T16:38:51.620Z,102389.38
2023-01-25T16:41:18.706Z,102391.97
2023-01-25T16:43:47.186Z,102384.13
2023-01-25T16:46:18.712Z,102390.31
2023-01-25T16:48:46.991Z,102391.69
2023-01-25T16:51:24.967Z,102386.97
2023-01-25T16:53:53.418Z,102391.84
2023-01-25T16:56:22.023Z,102386.78
2023-01-25T16:58:50.133Z,102383.13
2023-01-25T17:01:18.840Z,102375.09
2023-01-25T17:03:45.494Z,102380.34
2023-01-25T17:06:26.208Z,102375.84
2023-01-25T17:08:56.064Z,102364.88
2023-01-25T17:11:23.216Z,102366.97
2023-01-25T17:13:51.093Z,102354.63
2023-01-25T17:16:18.789Z,102362.66
2023-01-25T17:18:45.358Z,102366.03
2023-01-25T17:21:14.440Z,102359.13
2023-01-25T17:23:42.096Z,102367.94
2023-01-25T17:26:11.151Z,102362.84
2023-01-25T17:28:37.480Z,102360.59
2023-01-25T17:31:04.493Z,102351.84
2023-01-25T17:33:32.072Z,102366.28
2023-01-25T17:36:02.534Z,102366.63
2023-01-25T17:38:29.032Z,102368.19
2023-01-25T17:40:55.448Z,102357.56
2023-01-25T17:43:21.928Z,102344.28
2023-01-25T17:45:48.301Z,102343.22
2023-01-25T17:48:14.681Z,102334.88
2023-01-25T17:50:41.132Z,102341.53
2023-01-25T17:53:07.602Z,102346.28
2023-01-25T17:55:38.869Z,102338.78
2023-01-25T17:58:05.927Z,102335.78
2023-01-25T18:00:32.836Z,102334.81
2023-01-25T18:02:59.281Z,102337.00
2023-01-25T18:05:29.123Z,102330.28
2023-01-25T18:07:55.663Z,102327.75
2023-01-25T18:10:22.209Z,102328.91
2023-01-25T18:13:03.593Z,102329.88
2023-01-25T18:15:30.859Z,102333.50
2023-01-25T18:17:58.316Z,102335.78
2023-01-25T18:20:24.840Z,102331.78
2023-01-25T18:22:51.382Z,102327.38
2023-01-25T18:25:35.003Z,102320.56
2023-01-25T18:28:01.665Z,102320.16
2023-01-25T18:30:38.561Z,102326.06
2023-01-25T18:33:05.660Z,102336.25
2023-01-25T18:35:32.204Z,102330.50
2023-01-25T18:37:58.694Z,102328.50
2023-01-25T18:40:25.290Z,102329.34
2023-01-25T18:42:52.898Z,102329.03
2023-01-25T18:45:19.939Z,102322.00
2023-01-25T18:47:46.780Z,102318.94
2023-01-25T18:50:16.475Z,102329.94
2023-01-25T18:52:43.518Z,102327.88
2023-01-25T18:55:12.235Z,102321.75
2023-01-25T18:57:39.760Z,102309.59
2023-01-25T19:00:09.104Z,102298.56
2023-01-25T19:02:35.602Z,102302.09
2023-01-25T19:05:02.114Z,102291.53
2023-01-25T19:07:29.051Z,102295.22
2023-01-25T19:09:55.396Z,102290.38
2023-01-25T19:12:22.263Z,102296.59
2023-01-25T19:14:48.715Z,102282.25
2023-01-25T19:17:15.396Z,102284.50
2023-01-25T19:19:44.256Z,102277.13
2023-01-25T19:22:10.907Z,102281.41
2023-01-25T19:24:37.552Z,102274.75
2023-01-25T19:27:04.221Z,102274.34
2023-01-25T19:29:30.597Z,102260.81
2023-01-25T19:31:57.331Z,102258.38
2023-01-25T19:34:24.133Z,102258.19
2023-01-25T19:36:50.625Z,102249.56
2023-01-25T19:39:17.887Z,102251.25
2023-01-25T19:41:44.722Z,102252.00
2023-01-25T19:44:13.721Z,102246.19
2023-01-25T19:46:40.187Z,102241.97
2023-01-25T21:14:29.523Z,102138.59
2023-01-25T21:16:55.914Z,102132.66
2023-01-25T21:19:22.855Z,102137.31
2023-01-25T21:21:49.338Z,102135.63
2023-01-25T21:24:15.864Z,102127.88
2023-01-25T21:26:42.352Z,102120.03
2023-01-25T21:29:08.807Z,102113.81
2023-01-25T21:31:37.987Z,102120.56
2023-01-25T21:34:06.268Z,102121.16
2023-01-25T21:36:32.816Z,102121.06
2023-01-25T21:39:00.024Z,102120.72
2023-01-25T21:41:29.534Z,102107.75
2023-01-25T21:44:16.850Z,102102.13
2023-01-25T21:46:51.305Z,102115.88
2023-01-25T21:49:41.172Z,102116.03
2023-01-25T21:52:07.564Z,102114.88
2023-01-25T21:54:36.931Z,102114.19
2023-01-25T21:57:09.159Z,102118.72
2023-01-25T21:59:40.647Z,102117.84
2023-01-25T22:02:11.366Z,102122.38
2023-01-25T22:04:37.941Z,102113.50
2023-01-25T22:07:05.926Z,102116.41
2023-01-25T22:09:32.550Z,102114.06
2023-01-25T22:11:58.926Z,102125.88
2023-01-25T22:14:25.389Z,102137.13
2023-01-25T22:16:52.478Z,102138.44
2023-01-25T22:19:19.573Z,102136.22
2023-01-25T22:21:46.009Z,102133.53
2023-01-25T22:24:12.687Z,102125.66
2023-01-25T22:26:45.051Z,102126.50
2023-01-25T22:29:11.993Z,102129.88
2023-01-25T22:31:38.604Z,102137.19
2023-01-25T22:34:05.154Z,102133.41
2023-01-25T22:36:31.823Z,102126.34
2023-01-25T22:39:00.166Z,102127.09
2023-01-25T22:41:28.802Z,102127.66
2023-01-25T22:43:55.426Z,102124.91
2023-01-25T22:46:24.099Z,102131.78
2023-01-25T22:48:50.944Z,102133.28
2023-01-25T22:51:25.058Z,102128.94
2023-01-25T22:53:52.375Z,102125.59
2023-01-25T22:56:21.274Z,102118.25
2023-01-25T22:58:47.946Z,102117.09
2023-01-25T23:01:19.737Z,102113.97
2023-01-25T23:03:47.377Z,102119.63
2023-01-25T23:06:16.372Z,102112.00
2023-01-25T23:08:43.628Z,102108.63
2023-01-25T23:11:16.053Z,102120.03
2023-01-25T23:14:03.318Z,102111.72
2023-01-25T23:16:29.857Z,102109.66
2023-01-25T23:18:57.231Z,102111.88
2023-01-25T23:21:27.391Z,102116.09
2023-01-25T23:24:00.743Z,102109.31
2023-01-25T23:26:29.395Z,102103.09
2023-01-25T23:28:57.373Z,102105.06
2023-01-25T23:31:25.281Z,102098.97
2023-01-25T23:33:59.838Z,102098.81
2023-01-25T23:36:29.054Z,102093.41
2023-01-25T23:38:56.059Z,102097.03
2023-01-25T23:41:26.162Z,102089.72
2023-01-25T23:43:53.175Z,102079.41
2023-01-25T23:46:19.630Z,102080.84
2023-01-25T23:48:47.082Z,102078.03
2023-01-25T23:51:14.998Z,102071.91
2023-01-25T23:53:42.341Z,102070.22
2023-01-25T23:56:14.054Z,102067.06
2023-01-25T23:58:41.462Z,102064.88
